Terminal Aerodrome Forecast
Issued by NWS

Home | Current Version | Previous Version | Text Only | Print | Product List | Glossary On
Versions: 1 2 3 4 5 6 7 8 9 10 11 12 13 14 15 16 17 18 19 20 21 22 23 24
000
FTUS45 KPSR 181400 AAA
TAFPHX
TAF AMD
KPHX 181450Z 1815/1912 10006KT P6SM FEW150 SCT200 BKN250
     FM181700 15010KT P6SM SCT120 BKN200
      TEMPO 1818/1822 17012G20KT P6SM BKN150
     FM190200 VRB06KT P6SM VCSH SCT080 SCT120 BKN200
     FM191000 10005KT P6SM VCSH FEW080 SCT120 BKN200=

USA.gov is the U.S. government's official web portal to all federal, state and local government web resources and services.